^^
Meteo Knjazevac Station Historical Data
Daily Summary for May 23, 2022 Units:  Both    English   Metric
Daily Weekly Monthly Yearly Custom
  High: Low: Average:
Temperature: 81.7 °F /  27.6 °C 51.3 °F /  10.7 °C 67.1 °F /  19.5 °C
Dew Point: 56.8 °F /  13.8 °C 46 °F /  7.8 °C 52.8 °F /  11.6 °C
Humidity: 85% 42% 63%
Wind Speed: 13mph /  20.9km/h - 2.9mph /  4.7km/h
Wind Gust: 20mph /  32.2km/h - -
Wind- - WSW
Pressure: 29.97 in /  1014.8 hPa 29.88 in /  1011.7 hPa -
Precipitation: 0.00 in /  0 mm    
Historical Graphs
 
 
Tabular Data for May 23, 2022
Time Temperature Dew Point Pressure Wind Wind Speed Wind Gust Humidity Rainfall Rate (Hourly) solar Conditions
00:00 55.4 °F /  13 °C 48.7 °F /  9.3 °C 29.97in /  1014.8hPa West 2mph /  3.2km/h 4mph /  6.4km/h 78% 0.00in /  0mm 0 W/m2
00:10 55 °F /  12.8 °C 48.3 °F /  9.1 °C 29.97in /  1014.8hPa Calm   3mph /  4.8km/h 78% 0.00in /  0mm 0 W/m2
00:20 55 °F /  12.8 °C 48.6 °F /  9.2 °C 29.97in /  1014.8hPa WSW 1mph /  1.6km/h 4mph /  6.4km/h 79% 0.00in /  0mm 0 W/m2
00:30 54.7 °F /  12.6 °C 48.3 °F /  9.1 °C 29.97in /  1014.8hPa Calm   2mph /  3.2km/h 79% 0.00in /  0mm 0 W/m2
00:40 54.5 °F /  12.5 °C 48.2 °F /  9 °C 29.97in /  1014.8hPa Calm   1mph /  1.6km/h 79% 0.00in /  0mm 0 W/m2
00:50 54.1 °F /  12.3 °C 47.8 °F /  8.8 °C 29.97in /  1014.8hPa WNW 1mph /  1.6km/h 2mph /  3.2km/h 79% 0.00in /  0mm 0 W/m2
01:00 54 °F /  12.2 °C 48 °F /  8.9 °C 29.97in /  1014.8hPa Calm   2mph /  3.2km/h 80% 0.00in /  0mm 0 W/m2
01:10 53.8 °F /  12.1 °C 47.8 °F /  8.8 °C 29.97in /  1014.8hPa Calm   2mph /  3.2km/h 80% 0.00in /  0mm 0 W/m2
01:20 53.3 °F /  11.8 °C 46.9 °F /  8.3 °C 29.96in /  1014.4hPa Calm   2mph /  3.2km/h 79% 0.00in /  0mm 0 W/m2
01:30 52.9 °F /  11.6 °C 46.9 °F /  8.3 °C 29.97in /  1014.8hPa Calm   2mph /  3.2km/h 80% 0.00in /  0mm 0 W/m2
01:40 52.2 °F /  11.2 °C 46.2 °F /  7.9 °C 29.97in /  1014.8hPa Calm   1mph /  1.6km/h 80% 0.00in /  0mm 0 W/m2
01:50 51.6 °F /  10.9 °C 46 °F /  7.8 °C 29.97in /  1014.8hPa WNW 1mph /  1.6km/h 2mph /  3.2km/h 81% 0.00in /  0mm 0 W/m2
02:00 51.4 °F /  10.8 °C 46.4 °F /  8 °C 29.97in /  1014.8hPa NW 1mph /  1.6km/h 2mph /  3.2km/h 83% 0.00in /  0mm 0 W/m2
02:10 51.3 °F /  10.7 °C 46.3 °F /  7.9 °C 29.97in /  1014.8hPa Calm   2mph /  3.2km/h 83% 0.00in /  0mm 0 W/m2
02:20 51.4 °F /  10.8 °C 46.4 °F /  8 °C 29.97in /  1014.8hPa West 1mph /  1.6km/h 2mph /  3.2km/h 83% 0.00in /  0mm 0 W/m2
02:30 51.3 °F /  10.7 °C 46.6 °F /  8.1 °C 29.97in /  1014.8hPa NW 2mph /  3.2km/h 3mph /  4.8km/h 84% 0.00in /  0mm 0 W/m2
02:40 51.8 °F /  11 °C 47.4 °F /  8.6 °C 29.97in /  1014.8hPa Calm   3mph /  4.8km/h 85% 0.00in /  0mm 0 W/m2
02:50 52 °F /  11.1 °C 47.3 °F /  8.5 °C 29.97in /  1014.8hPa Calm   2mph /  3.2km/h 84% 0.00in /  0mm 0 W/m2
03:00 51.8 °F /  11 °C 47.1 °F /  8.4 °C 29.97in /  1014.8hPa West 1mph /  1.6km/h 2mph /  3.2km/h 84% 0.00in /  0mm 0 W/m2
03:10 52 °F /  11.1 °C 47.3 °F /  8.5 °C 29.97in /  1014.8hPa Calm   2mph /  3.2km/h 84% 0.00in /  0mm 0 W/m2
03:20 52.2 °F /  11.2 °C 47.5 °F /  8.6 °C 29.97in /  1014.8hPa NW 1mph /  1.6km/h 2mph /  3.2km/h 84% 0.00in /  0mm 0 W/m2
03:30 52.3 °F /  11.3 °C 47.6 °F /  8.7 °C 29.96in /  1014.4hPa Calm   2mph /  3.2km/h 84% 0.00in /  0mm 0 W/m2
03:40 52.5 °F /  11.4 °C 48.1 °F /  8.9 °C 29.96in /  1014.4hPa WNW 1mph /  1.6km/h 2mph /  3.2km/h 85% 0.00in /  0mm 0 W/m2
03:50 52.7 °F /  11.5 °C 48 °F /  8.9 °C 29.96in /  1014.4hPa WSW 1mph /  1.6km/h 2mph /  3.2km/h 84% 0.00in /  0mm 0 W/m2
04:00 52.9 °F /  11.6 °C 48.5 °F /  9.2 °C 29.97in /  1014.8hPa WNW 1mph /  1.6km/h 2mph /  3.2km/h 85% 0.00in /  0mm 0 W/m2
04:10 52.9 °F /  11.6 °C 48.2 °F /  9 °C 29.96in /  1014.4hPa Calm   2mph /  3.2km/h 84% 0.00in /  0mm 0 W/m2
04:20 53.2 °F /  11.8 °C 48.5 °F /  9.2 °C 29.97in /  1014.8hPa WNW 2mph /  3.2km/h 2mph /  3.2km/h 84% 0.00in /  0mm 0 W/m2
04:30 53.2 °F /  11.8 °C 48.5 °F /  9.2 °C 29.96in /  1014.4hPa Calm   2mph /  3.2km/h 84% 0.00in /  0mm 0 W/m2
04:40 53.4 °F /  11.9 °C 48.7 °F /  9.3 °C 29.96in /  1014.4hPa WSW 2mph /  3.2km/h 3mph /  4.8km/h 84% 0.00in /  0mm 0 W/m2
04:50 53.6 °F /  12 °C 49.2 °F /  9.6 °C 29.96in /  1014.4hPa Calm   3mph /  4.8km/h 85% 0.00in /  0mm 0 W/m2
05:00 53.8 °F /  12.1 °C 49.1 °F /  9.5 °C 29.96in /  1014.4hPa WSW 1mph /  1.6km/h 2mph /  3.2km/h 84% 0.00in /  0mm 1 W/m2
05:10 53.9 °F /  12.2 °C 49.2 °F /  9.6 °C 29.96in /  1014.4hPa WNW 1mph /  1.6km/h 3mph /  4.8km/h 84% 0.00in /  0mm 1 W/m2
05:20 54.1 °F /  12.3 °C 49.4 °F /  9.7 °C 29.96in /  1014.4hPa WNW 1mph /  1.6km/h 3mph /  4.8km/h 84% 0.00in /  0mm 2 W/m2
05:30 54.3 °F /  12.4 °C 49.6 °F /  9.8 °C 29.96in /  1014.4hPa WNW 1mph /  1.6km/h 2mph /  3.2km/h 84% 0.00in /  0mm 6 W/m2
05:40 54.3 °F /  12.4 °C 49.6 °F /  9.8 °C 29.96in /  1014.4hPa West 1mph /  1.6km/h 2mph /  3.2km/h 84% 0.00in /  0mm 17 W/m2
05:50 54.5 °F /  12.5 °C 49.8 °F /  9.9 °C 29.96in /  1014.4hPa WNW 2mph /  3.2km/h 3mph /  4.8km/h 84% 0.00in /  0mm 8 W/m2
06:00 54.7 °F /  12.6 °C 49.9 °F /  9.9 °C 29.96in /  1014.4hPa Calm   3mph /  4.8km/h 84% 0.00in /  0mm 10 W/m2
06:10 54.9 °F /  12.7 °C 50.1 °F /  10.1 °C 29.95in /  1014.1hPa Calm   2mph /  3.2km/h 84% 0.00in /  0mm 69 W/m2
06:20 55.2 °F /  12.9 °C 50.1 °F /  10.1 °C 29.96in /  1014.4hPa Calm   2mph /  3.2km/h 83% 0.00in /  0mm 63 W/m2
06:30 55.7 °F /  13.2 °C 50.7 °F /  10.4 °C 29.95in /  1014.1hPa North 1mph /  1.6km/h 2mph /  3.2km/h 83% 0.00in /  0mm 100 W/m2
06:40 56.1 °F /  13.4 °C 51.4 °F /  10.8 °C 29.96in /  1014.4hPa NW 1mph /  1.6km/h 2mph /  3.2km/h 84% 0.00in /  0mm 45 W/m2
06:50 56.5 °F /  13.6 °C 51.7 °F /  10.9 °C 29.96in /  1014.4hPa West 1mph /  1.6km/h 2mph /  3.2km/h 84% 0.00in /  0mm 49 W/m2
07:00 56.8 °F /  13.8 °C 51.7 °F /  10.9 °C 29.95in /  1014.1hPa WSW 1mph /  1.6km/h 2mph /  3.2km/h 83% 0.00in /  0mm 75 W/m2
07:10 57.2 °F /  14 °C 52.1 °F /  11.2 °C 29.96in /  1014.4hPa WSW 1mph /  1.6km/h 3mph /  4.8km/h 83% 0.00in /  0mm 67 W/m2
07:20 57.6 °F /  14.2 °C 52.4 °F /  11.3 °C 29.96in /  1014.4hPa West 1mph /  1.6km/h 2mph /  3.2km/h 83% 0.00in /  0mm 69 W/m2
07:30 57.7 °F /  14.3 °C 52.6 °F /  11.4 °C 29.96in /  1014.4hPa WSW 1mph /  1.6km/h 2mph /  3.2km/h 83% 0.00in /  0mm 100 W/m2
07:40 58.1 °F /  14.5 °C 52.3 °F /  11.3 °C 29.96in /  1014.4hPa Calm   2mph /  3.2km/h 81% 0.00in /  0mm 139 W/m2
07:50 58.8 °F /  14.9 °C 52.7 °F /  11.5 °C 29.96in /  1014.4hPa Calm   3mph /  4.8km/h 80% 0.00in /  0mm 175 W/m2
08:00 59.5 °F /  15.3 °C 53 °F /  11.7 °C 29.96in /  1014.4hPa SW 1mph /  1.6km/h 2mph /  3.2km/h 79% 0.00in /  0mm 167 W/m2
08:10 60.4 °F /  15.8 °C 53.5 °F /  11.9 °C 29.96in /  1014.4hPa SW 2mph /  3.2km/h 3mph /  4.8km/h 78% 0.00in /  0mm 203 W/m2
08:20 61.2 °F /  16.2 °C 53.9 °F /  12.2 °C 29.96in /  1014.4hPa WNW 1mph /  1.6km/h 5mph /  8km/h 77% 0.00in /  0mm 201 W/m2
08:30 61.9 °F /  16.6 °C 53.9 °F /  12.2 °C 29.96in /  1014.4hPa South 1mph /  1.6km/h 2mph /  3.2km/h 75% 0.00in /  0mm 229 W/m2
08:40 62.8 °F /  17.1 °C 54.3 °F /  12.4 °C 29.96in /  1014.4hPa East 1mph /  1.6km/h 3mph /  4.8km/h 74% 0.00in /  0mm 323 W/m2
08:50 63.5 °F /  17.5 °C 55.1 °F /  12.8 °C 29.96in /  1014.4hPa NNE 2mph /  3.2km/h 3mph /  4.8km/h 74% 0.00in /  0mm 236 W/m2
09:00 64.2 °F /  17.9 °C 55.4 °F /  13 °C 29.96in /  1014.4hPa ENE 2mph /  3.2km/h 5mph /  8km/h 73% 0.00in /  0mm 238 W/m2
09:10 65.1 °F /  18.4 °C 55.9 °F /  13.3 °C 29.95in /  1014.1hPa ESE 1mph /  1.6km/h 4mph /  6.4km/h 72% 0.00in /  0mm 272 W/m2
09:20 65.8 °F /  18.8 °C 55.4 °F /  13 °C 29.95in /  1014.1hPa SW 1mph /  1.6km/h 3mph /  4.8km/h 69% 0.00in /  0mm 259 W/m2
09:30 66.9 °F /  19.4 °C 54.8 °F /  12.7 °C 29.95in /  1014.1hPa SSW 1mph /  1.6km/h 3mph /  4.8km/h 65% 0.00in /  0mm 705 W/m2
09:40 68.7 °F /  20.4 °C 55.6 °F /  13.1 °C 29.95in /  1014.1hPa South 2mph /  3.2km/h 5mph /  8km/h 63% 0.00in /  0mm 735 W/m2
09:50 70.2 °F /  21.2 °C 56.5 °F /  13.6 °C 29.94in /  1013.8hPa NNW 1mph /  1.6km/h 4mph /  6.4km/h 62% 0.00in /  0mm 764 W/m2
10:00 71.6 °F /  22 °C 54.1 °F /  12.3 °C 29.94in /  1013.8hPa WSW 8mph /  12.9km/h 13mph /  20.9km/h 54% 0.00in /  0mm 791 W/m2
10:10 72.9 °F /  22.7 °C 56.7 °F /  13.7 °C 29.94in /  1013.8hPa SW 7mph /  11.3km/h 10mph /  16.1km/h 57% 0.00in /  0mm 820 W/m2
10:20 73.4 °F /  23 °C 53.1 °F /  11.7 °C 29.94in /  1013.8hPa SW 7mph /  11.3km/h 13mph /  20.9km/h 49% 0.00in /  0mm 842 W/m2
10:30 74.3 °F /  23.5 °C 53.9 °F /  12.2 °C 29.94in /  1013.8hPa WSW 7mph /  11.3km/h 13mph /  20.9km/h 49% 0.00in /  0mm 860 W/m2
10:40 75 °F /  23.9 °C 54.6 °F /  12.6 °C 29.94in /  1013.8hPa West 6mph /  9.7km/h 12mph /  19.3km/h 49% 0.00in /  0mm 141 W/m2
10:50 75.4 °F /  24.1 °C 54.3 °F /  12.4 °C 29.93in /  1013.4hPa WSW 6mph /  9.7km/h 13mph /  20.9km/h 48% 0.00in /  0mm 891 W/m2
11:00 75.9 °F /  24.4 °C 54.8 °F /  12.7 °C 29.93in /  1013.4hPa WNW 7mph /  11.3km/h 13mph /  20.9km/h 48% 0.00in /  0mm 905 W/m2
11:10 76.5 °F /  24.7 °C 55.3 °F /  12.9 °C 29.93in /  1013.4hPa West 7mph /  11.3km/h 12mph /  19.3km/h 48% 0.00in /  0mm 167 W/m2
11:20 76.8 °F /  24.9 °C 55.6 °F /  13.1 °C 29.93in /  1013.4hPa West 6mph /  9.7km/h 9mph /  14.5km/h 48% 0.00in /  0mm 560 W/m2
11:30 77.7 °F /  25.4 °C 55.9 °F /  13.3 °C 29.92in /  1013.1hPa West 6mph /  9.7km/h 17mph /  27.4km/h 47% 0.00in /  0mm 347 W/m2
11:40 77.7 °F /  25.4 °C 54.1 °F /  12.3 °C 29.92in /  1013.1hPa West 8mph /  12.9km/h 17mph /  27.4km/h 44% 0.00in /  0mm 944 W/m2
11:50 77.7 °F /  25.4 °C 54.1 °F /  12.3 °C 29.92in /  1013.1hPa West 9mph /  14.5km/h 16mph /  25.7km/h 44% 0.00in /  0mm 950 W/m2
12:00 78.1 °F /  25.6 °C 55 °F /  12.8 °C 29.92in /  1013.1hPa West 8mph /  12.9km/h 16mph /  25.7km/h 45% 0.00in /  0mm 955 W/m2
12:10 78.3 °F /  25.7 °C 54.6 °F /  12.6 °C 29.92in /  1013.1hPa West 6mph /  9.7km/h 15mph /  24.1km/h 44% 0.00in /  0mm 958 W/m2
12:20 79.2 °F /  26.2 °C 55.4 °F /  13 °C 29.91in /  1012.8hPa NW 5mph /  8km/h 13mph /  20.9km/h 44% 0.00in /  0mm 960 W/m2
12:30 79.2 °F /  26.2 °C 55.4 °F /  13 °C 29.91in /  1012.8hPa WNW 6mph /  9.7km/h 14mph /  22.5km/h 44% 0.00in /  0mm 960 W/m2
12:40 79.5 °F /  26.4 °C 55.1 °F /  12.8 °C 29.91in /  1012.8hPa WNW 7mph /  11.3km/h 14mph /  22.5km/h 43% 0.00in /  0mm 548 W/m2
12:50 79.9 °F /  26.6 °C 56 °F /  13.3 °C 29.91in /  1012.8hPa NW 7mph /  11.3km/h 13mph /  20.9km/h 44% 0.00in /  0mm 683 W/m2
13:00 79.9 °F /  26.6 °C 55.4 °F /  13 °C 29.91in /  1012.8hPa West 10mph /  16.1km/h 14mph /  22.5km/h 43% 0.00in /  0mm 495 W/m2
13:10 80.4 °F /  26.9 °C 55.9 °F /  13.3 °C 29.91in /  1012.8hPa WSW 9mph /  14.5km/h 17mph /  27.4km/h 43% 0.00in /  0mm 944 W/m2
13:20 80.1 °F /  26.7 °C 55.5 °F /  13.1 °C 29.91in /  1012.8hPa WSW 13mph /  20.9km/h 20mph /  32.2km/h 43% 0.00in /  0mm 937 W/m2
13:30 80.4 °F /  26.9 °C 55.9 °F /  13.3 °C 29.91in /  1012.8hPa West 7mph /  11.3km/h 18mph /  29km/h 43% 0.00in /  0mm 927 W/m2
13:40 80.8 °F /  27.1 °C 55.5 °F /  13.1 °C 29.90in /  1012.4hPa WSW 10mph /  16.1km/h 17mph /  27.4km/h 42% 0.00in /  0mm 917 W/m2
13:50 80.6 °F /  27 °C 56 °F /  13.3 °C 29.90in /  1012.4hPa WSW 8mph /  12.9km/h 17mph /  27.4km/h 43% 0.00in /  0mm 905 W/m2
14:00 80.8 °F /  27.1 °C 56.8 °F /  13.8 °C 29.90in /  1012.4hPa West 3mph /  4.8km/h 16mph /  25.7km/h 44% 0.00in /  0mm 891 W/m2
14:10 81.3 °F /  27.4 °C 56 °F /  13.3 °C 29.89in /  1012.1hPa WSW 12mph /  19.3km/h 16mph /  25.7km/h 42% 0.00in /  0mm 876 W/m2
14:20 81 °F /  27.2 °C 55.7 °F /  13.2 °C 29.89in /  1012.1hPa WSW 7mph /  11.3km/h 19mph /  30.6km/h 42% 0.00in /  0mm 844 W/m2
14:30 81 °F /  27.2 °C 56.4 °F /  13.6 °C 29.89in /  1012.1hPa West 5mph /  8km/h 17mph /  27.4km/h 43% 0.00in /  0mm 843 W/m2
14:40 81.7 °F /  27.6 °C 56.4 °F /  13.6 °C 29.89in /  1012.1hPa WNW 6mph /  9.7km/h 13mph /  20.9km/h 42% 0.00in /  0mm 663 W/m2
14:50 81.3 °F /  27.4 °C 56 °F /  13.3 °C 29.89in /  1012.1hPa West 6mph /  9.7km/h 17mph /  27.4km/h 42% 0.00in /  0mm 804 W/m2
15:00 81.3 °F /  27.4 °C 56 °F /  13.3 °C 29.89in /  1012.1hPa West 7mph /  11.3km/h 16mph /  25.7km/h 42% 0.00in /  0mm 783 W/m2
15:10 81.3 °F /  27.4 °C 56 °F /  13.3 °C 29.89in /  1012.1hPa WNW 6mph /  9.7km/h 16mph /  25.7km/h 42% 0.00in /  0mm 593 W/m2
15:20 81.3 °F /  27.4 °C 56 °F /  13.3 °C 29.88in /  1011.7hPa West 7mph /  11.3km/h 15mph /  24.1km/h 42% 0.00in /  0mm 737 W/m2
15:30 81.3 °F /  27.4 °C 56 °F /  13.3 °C 29.89in /  1012.1hPa WNW 6mph /  9.7km/h 20mph /  32.2km/h 42% 0.00in /  0mm 712 W/m2
15:40 81.3 °F /  27.4 °C 56.7 °F /  13.7 °C 29.88in /  1011.7hPa WSW 7mph /  11.3km/h 16mph /  25.7km/h 43% 0.00in /  0mm 676 W/m2
15:50 80.8 °F /  27.1 °C 55.5 °F /  13.1 °C 29.89in /  1012.1hPa WSW 5mph /  8km/h 17mph /  27.4km/h 42% 0.00in /  0mm 470 W/m2
16:00 80.2 °F /  26.8 °C 55.7 °F /  13.2 °C 29.89in /  1012.1hPa West 7mph /  11.3km/h 13mph /  20.9km/h 43% 0.00in /  0mm 569 W/m2
16:10 79.7 °F /  26.5 °C 55.2 °F /  12.9 °C 29.89in /  1012.1hPa West 9mph /  14.5km/h 15mph /  24.1km/h 43% 0.00in /  0mm 490 W/m2
16:20 79.5 °F /  26.4 °C 55.1 °F /  12.8 °C 29.89in /  1012.1hPa West 5mph /  8km/h 13mph /  20.9km/h 43% 0.00in /  0mm 437 W/m2
16:30 79.3 °F /  26.3 °C 55.5 °F /  13.1 °C 29.88in /  1011.7hPa West 7mph /  11.3km/h 12mph /  19.3km/h 44% 0.00in /  0mm 509 W/m2
16:40 79.1 °F /  26.2 °C 55.3 °F /  12.9 °C 29.88in /  1011.7hPa WSW 6mph /  9.7km/h 13mph /  20.9km/h 44% 0.00in /  0mm 378 W/m2
16:50 78.8 °F /  26 °C 55 °F /  12.8 °C 29.88in /  1011.7hPa West 5mph /  8km/h 12mph /  19.3km/h 44% 0.00in /  0mm 256 W/m2
17:00 78.4 °F /  25.8 °C 55.3 °F /  12.9 °C 29.88in /  1011.7hPa WSW 6mph /  9.7km/h 10mph /  16.1km/h 45% 0.00in /  0mm 276 W/m2
17:10 78.4 °F /  25.8 °C 55.3 °F /  12.9 °C 29.89in /  1012.1hPa West 6mph /  9.7km/h 12mph /  19.3km/h 45% 0.00in /  0mm 249 W/m2
17:20 78.1 °F /  25.6 °C 55 °F /  12.8 °C 29.89in /  1012.1hPa West 7mph /  11.3km/h 12mph /  19.3km/h 45% 0.00in /  0mm 188 W/m2
17:30 77.9 °F /  25.5 °C 54.8 °F /  12.7 °C 29.89in /  1012.1hPa West 5mph /  8km/h 12mph /  19.3km/h 45% 0.00in /  0mm 308 W/m2
17:40 77.9 °F /  25.5 °C 54.8 °F /  12.7 °C 29.89in /  1012.1hPa West 3mph /  4.8km/h 10mph /  16.1km/h 45% 0.00in /  0mm 138 W/m2
17:50 77.4 °F /  25.2 °C 54.4 °F /  12.4 °C 29.89in /  1012.1hPa NW 3mph /  4.8km/h 8mph /  12.9km/h 45% 0.00in /  0mm 108 W/m2
18:00 77.2 °F /  25.1 °C 54.2 °F /  12.3 °C 29.88in /  1011.7hPa WNW 5mph /  8km/h 10mph /  16.1km/h 45% 0.00in /  0mm 117 W/m2
18:10 76.8 °F /  24.9 °C 53.9 °F /  12.2 °C 29.88in /  1011.7hPa NW 5mph /  8km/h 9mph /  14.5km/h 45% 0.00in /  0mm 83 W/m2
18:20 76.6 °F /  24.8 °C 54.9 °F /  12.7 °C 29.89in /  1012.1hPa WNW 5mph /  8km/h 8mph /  12.9km/h 47% 0.00in /  0mm 60 W/m2
18:30 76.1 °F /  24.5 °C 55 °F /  12.8 °C 29.89in /  1012.1hPa WNW 3mph /  4.8km/h 8mph /  12.9km/h 48% 0.00in /  0mm 30 W/m2
18:40 75.7 °F /  24.3 °C 54.7 °F /  12.6 °C 29.89in /  1012.1hPa WNW 3mph /  4.8km/h 7mph /  11.3km/h 48% 0.00in /  0mm 36 W/m2
18:50 75.4 °F /  24.1 °C 54.9 °F /  12.7 °C 29.89in /  1012.1hPa WNW 3mph /  4.8km/h 9mph /  14.5km/h 49% 0.00in /  0mm 33 W/m2
19:00 74.6 °F /  23.7 °C 54.2 °F /  12.3 °C 29.90in /  1012.4hPa WNW 5mph /  8km/h 9mph /  14.5km/h 49% 0.00in /  0mm 16 W/m2
19:10 74.1 °F /  23.4 °C 54.3 °F /  12.4 °C 29.90in /  1012.4hPa West 2mph /  3.2km/h 9mph /  14.5km/h 50% 0.00in /  0mm 8 W/m2
19:20 73.9 °F /  23.3 °C 55.2 °F /  12.9 °C 29.90in /  1012.4hPa West 2mph /  3.2km/h 7mph /  11.3km/h 52% 0.00in /  0mm 8 W/m2
19:30 73.6 °F /  23.1 °C 54.9 °F /  12.7 °C 29.90in /  1012.4hPa WNW 3mph /  4.8km/h 7mph /  11.3km/h 52% 0.00in /  0mm 5 W/m2
19:40 73.2 °F /  22.9 °C 55.1 °F /  12.8 °C 29.90in /  1012.4hPa West 2mph /  3.2km/h 7mph /  11.3km/h 53% 0.00in /  0mm 4 W/m2
19:50 73 °F /  22.8 °C 54.9 °F /  12.7 °C 29.90in /  1012.4hPa WNW 2mph /  3.2km/h 5mph /  8km/h 53% 0.00in /  0mm 2 W/m2
20:00 72.6 °F /  22.6 °C 54.5 °F /  12.5 °C 29.89in /  1012.1hPa WNW 1mph /  1.6km/h 5mph /  8km/h 53% 0.00in /  0mm 0 W/m2
20:10 72.3 °F /  22.4 °C 54.2 °F /  12.3 °C 29.90in /  1012.4hPa WSW 2mph /  3.2km/h 3mph /  4.8km/h 53% 0.00in /  0mm 0 W/m2
20:20 72 °F /  22.2 °C 54.4 °F /  12.4 °C 29.90in /  1012.4hPa Calm   3mph /  4.8km/h 54% 0.00in /  0mm 0 W/m2
20:30 71.6 °F /  22 °C 54.1 °F /  12.3 °C 29.90in /  1012.4hPa Calm   2mph /  3.2km/h 54% 0.00in /  0mm 0 W/m2
20:40 71.4 °F /  21.9 °C 55.4 °F /  13 °C 29.91in /  1012.8hPa Calm   4mph /  6.4km/h 57% 0.00in /  0mm 0 W/m2
20:50 70.9 °F /  21.6 °C 54.9 °F /  12.7 °C 29.91in /  1012.8hPa Calm   3mph /  4.8km/h 57% 0.00in /  0mm 0 W/m2
21:00 70.5 °F /  21.4 °C 54.5 °F /  12.5 °C 29.91in /  1012.8hPa Calm   3mph /  4.8km/h 57% 0.00in /  0mm 0 W/m2
21:10 70 °F /  21.1 °C 54.5 °F /  12.5 °C 29.91in /  1012.8hPa SSE 1mph /  1.6km/h 3mph /  4.8km/h 58% 0.00in /  0mm 0 W/m2
21:20 69.4 °F /  20.8 °C 54.5 °F /  12.5 °C 29.91in /  1012.8hPa Calm   3mph /  4.8km/h 59% 0.00in /  0mm 0 W/m2
21:30 69 °F /  20.6 °C 54.6 °F /  12.6 °C 29.91in /  1012.8hPa Calm   2mph /  3.2km/h 60% 0.00in /  0mm 0 W/m2
21:40 68.5 °F /  20.3 °C 54.1 °F /  12.3 °C 29.91in /  1012.8hPa Calm   2mph /  3.2km/h 60% 0.00in /  0mm 0 W/m2
21:50 68 °F /  20 °C 54.4 °F /  12.4 °C 29.91in /  1012.8hPa SW 1mph /  1.6km/h 3mph /  4.8km/h 62% 0.00in /  0mm 0 W/m2
22:00 67.3 °F /  19.6 °C 53.8 °F /  12.1 °C 29.91in /  1012.8hPa Calm   3mph /  4.8km/h 62% 0.00in /  0mm 0 W/m2
22:10 66.7 °F /  19.3 °C 53.7 °F /  12.1 °C 29.92in /  1013.1hPa SSE 1mph /  1.6km/h 4mph /  6.4km/h 63% 0.00in /  0mm 0 W/m2
22:20 66.2 °F /  19 °C 53.6 °F /  12 °C 29.91in /  1012.8hPa Calm   2mph /  3.2km/h 64% 0.00in /  0mm 0 W/m2
22:30 65.8 °F /  18.8 °C 53.3 °F /  11.8 °C 29.91in /  1012.8hPa Calm   2mph /  3.2km/h 64% 0.00in /  0mm 0 W/m2
22:40 65.3 °F /  18.5 °C 53.2 °F /  11.8 °C 29.92in /  1013.1hPa SSE 1mph /  1.6km/h 3mph /  4.8km/h 65% 0.00in /  0mm 0 W/m2
22:50 64.8 °F /  18.2 °C 53.1 °F /  11.7 °C 29.91in /  1012.8hPa Calm   2mph /  3.2km/h 66% 0.00in /  0mm 0 W/m2
23:00 64.4 °F /  18 °C 53.2 °F /  11.8 °C 29.92in /  1013.1hPa Calm   2mph /  3.2km/h 67% 0.00in /  0mm 0 W/m2
23:10 63.9 °F /  17.7 °C 53.1 °F /  11.7 °C 29.92in /  1013.1hPa WSW 1mph /  1.6km/h 3mph /  4.8km/h 68% 0.00in /  0mm 0 W/m2
23:20 63.5 °F /  17.5 °C 53.1 °F /  11.7 °C 29.92in /  1013.1hPa Calm   1mph /  1.6km/h 69% 0.00in /  0mm 0 W/m2
23:30 63.1 °F /  17.3 °C 52.8 °F /  11.6 °C 29.92in /  1013.1hPa Calm   2mph /  3.2km/h 69% 0.00in /  0mm 0 W/m2
23:40 62.8 °F /  17.1 °C 52.8 °F /  11.6 °C 29.92in /  1013.1hPa Calm   2mph /  3.2km/h 70% 0.00in /  0mm 0 W/m2
23:50 62.4 °F /  16.9 °C 52.5 °F /  11.4 °C 29.92in /  1013.1hPa Calm   2mph /  3.2km/h 70% 0.00in /  0mm 0 W/m2
Knjazevac, Serbia
Compliments of Weather Underground - 2 mb